Terminal Aerodrome Forecast
Issued by NWS

Home | Current Version | Previous Version | Text Only | Print | Product List | Glossary On
Versions: 1 2 3 4 5 6 7 8 9 10 11 12 13
000
FTUS41 KCAR 182320
TAFBHB
TAF
KBHB 182320Z 1900/1924 25005KT P6SM -SHRA SCT035 OVC070
      TEMPO 1900/1902 4SM RA BR SCT007 OVC025
     FM190300 02004KT P6SM -RA OVC025
     FM190700 36006KT P6SM SCT040
     FM191400 35012G20KT P6SM FEW050 SCT200
      AMD LTD TO CLD VIS AND WIND=

USA.gov is the U.S. government's official web portal to all federal, state and local government web resources and services.